createdAt,value
2023-03-19T00:00:49.167Z,28.58
2023-03-19T00:03:16.680Z,25.35
2023-03-19T00:05:54.073Z,28.83
2023-03-19T00:08:22.922Z,26.38
2023-03-19T00:10:51.128Z,28.42
2023-03-19T00:13:20.142Z,26.92
2023-03-19T00:15:47.711Z,26.38
2023-03-19T00:18:15.408Z,25.98
2023-03-19T00:20:43.762Z,28.20
2023-03-19T00:23:11.349Z,26.67
2023-03-19T00:25:38.788Z,27.50
2023-03-19T00:28:06.409Z,26.27
2023-03-19T00:30:34.400Z,30.35
2023-03-19T00:33:03.125Z,27.58
2023-03-19T00:35:30.610Z,23.13
2023-03-19T00:37:58.478Z,25.85
2023-03-19T00:40:26.287Z,27.52
2023-03-19T00:42:53.878Z,29.08
2023-03-19T00:45:21.886Z,28.90
2023-03-19T00:47:49.927Z,24.77
2023-03-19T00:50:17.476Z,24.95
2023-03-19T00:52:44.937Z,28.08
2023-03-19T00:55:12.730Z,25.17
2023-03-19T00:57:40.417Z,28.08
2023-03-19T01:00:08.927Z,28.08
2023-03-19T01:02:36.962Z,32.75
2023-03-19T01:05:04.695Z,28.55
2023-03-19T01:07:33.184Z,27.42
2023-03-19T01:10:01.029Z,27.40
2023-03-19T01:12:28.741Z,30.45
2023-03-19T01:14:56.494Z,26.48
2023-03-19T01:17:24.230Z,27.65
2023-03-19T01:19:51.758Z,28.95
2023-03-19T01:22:19.451Z,25.33
2023-03-19T01:24:53.234Z,25.20
2023-03-19T01:27:21.439Z,33.63
2023-03-19T01:29:50.955Z,25.33
2023-03-19T01:32:29.456Z,28.90
2023-03-19T01:35:13.990Z,30.23
2023-03-19T01:37:41.948Z,29.08
2023-03-19T01:40:13.364Z,29.63
2023-03-19T01:42:55.598Z,30.95
2023-03-19T01:45:43.400Z,27.80
2023-03-19T01:48:34.301Z,29.83
2023-03-19T01:51:11.252Z,26.83
2023-03-19T01:54:10.628Z,26.45
2023-03-19T01:56:48.446Z,27.23
2023-03-19T01:59:37.565Z,27.52
2023-03-19T02:02:35.509Z,26.13
2023-03-19T02:05:25.617Z,32.92
2023-03-19T02:08:03.524Z,29.10
2023-03-19T02:10:32.481Z,31.27
2023-03-19T02:13:00.232Z,32.30
2023-03-19T02:15:28.237Z,30.85
2023-03-19T02:17:56.077Z,33.17
2023-03-19T02:20:43.351Z,29.23
2023-03-19T02:23:36.446Z,32.05
2023-03-19T02:26:16.308Z,33.65
2023-03-19T02:28:48.016Z,28.45
2023-03-19T02:31:20.988Z,30.55
2023-03-19T02:34:26.823Z,32.58
2023-03-19T02:37:01.110Z,29.38
2023-03-19T02:39:40.560Z,29.13
2023-03-19T02:42:11.315Z,30.30
2023-03-19T02:44:38.897Z,30.30
2023-03-19T02:47:09.661Z,27.80
2023-03-19T02:49:37.284Z,31.23
2023-03-19T02:52:05.211Z,33.80
2023-03-19T02:54:32.753Z,30.63
2023-03-19T02:57:00.326Z,36.17
2023-03-19T02:59:27.874Z,33.65
2023-03-19T03:01:55.453Z,30.05
2023-03-19T03:04:22.961Z,34.15
2023-03-19T03:06:50.430Z,29.42
2023-03-19T03:09:18.482Z,29.10
2023-03-19T03:11:46.260Z,30.83
2023-03-19T03:14:13.932Z,30.77
2023-03-19T03:16:44.571Z,29.27
2023-03-19T03:19:12.245Z,36.50
2023-03-19T03:21:39.926Z,31.48
2023-03-19T03:24:07.804Z,33.75
2023-03-19T03:26:38.927Z,34.42
2023-03-19T03:29:06.866Z,29.45
2023-03-19T03:31:35.069Z,30.00
2023-03-19T03:34:03.213Z,32.05
2023-03-19T03:36:32.572Z,30.02
2023-03-19T03:39:00.130Z,27.85
2023-03-19T03:41:27.729Z,30.48
2023-03-19T03:43:55.678Z,29.15
2023-03-19T03:46:24.429Z,34.47
2023-03-19T03:48:53.409Z,36.28
2023-03-19T03:51:21.785Z,34.30
2023-03-19T03:53:49.408Z,32.03
2023-03-19T03:56:16.931Z,35.22
2023-03-19T03:58:44.700Z,32.08
2023-03-19T04:01:19.527Z,36.42
2023-03-19T04:03:52.171Z,36.10
2023-03-19T04:06:22.821Z,27.77
2023-03-19T04:09:03.371Z,32.40
2023-03-19T04:11:33.965Z,30.33
2023-03-19T04:14:03.403Z,34.85
2023-03-19T04:16:33.518Z,35.58
2023-03-19T04:19:01.427Z,32.67
2023-03-19T04:21:30.225Z,27.60
2023-03-19T04:23:58.064Z,30.67
2023-03-19T04:26:25.733Z,32.28
2023-03-19T04:28:53.415Z,35.22
2023-03-19T04:31:21.037Z,28.02
2023-03-19T04:33:49.714Z,26.70
2023-03-19T04:36:18.063Z,31.60
2023-03-19T04:38:45.759Z,31.30
2023-03-19T04:41:16.379Z,32.55
2023-03-19T04:43:57.085Z,29.63
2023-03-19T04:46:24.935Z,32.22
2023-03-19T04:48:52.400Z,29.92
2023-03-19T04:51:21.735Z,27.60
2023-03-19T04:53:49.811Z,32.97
2023-03-19T04:56:18.522Z,30.23
2023-03-19T04:58:46.667Z,30.10
2023-03-19T05:01:14.179Z,28.08
2023-03-19T05:04:03.916Z,29.25
2023-03-19T05:06:34.073Z,29.10
2023-03-19T05:09:01.936Z,27.98
2023-03-19T05:11:29.501Z,29.40
2023-03-19T05:14:19.686Z,25.58
2023-03-19T05:16:59.986Z,29.70
2023-03-19T05:19:34.297Z,31.02
2023-03-19T05:22:02.093Z,27.65
2023-03-19T05:24:29.939Z,29.73
2023-03-19T05:26:58.432Z,27.35
2023-03-19T05:29:26.783Z,30.35
2023-03-19T05:32:17.677Z,29.42
2023-03-19T05:34:45.410Z,25.98
2023-03-19T05:37:13.964Z,31.77
2023-03-19T05:39:42.892Z,30.05
2023-03-19T05:42:11.513Z,26.88
2023-03-19T05:44:39.272Z,26.50
2023-03-19T05:47:18.423Z,28.83
2023-03-19T05:49:53.401Z,27.60
2023-03-19T05:52:21.374Z,28.40
2023-03-19T05:54:50.786Z,28.00
2023-03-19T05:57:41.389Z,30.08
2023-03-19T06:00:18.798Z,24.60
2023-03-19T06:02:48.224Z,28.77
2023-03-19T06:05:34.455Z,23.98
2023-03-19T06:08:18.060Z,24.33
2023-03-19T06:11:04.627Z,27.77
2023-03-19T06:13:34.049Z,31.17
2023-03-19T06:16:07.718Z,26.98
2023-03-19T06:18:42.241Z,25.00
2023-03-19T06:21:12.668Z,28.85
2023-03-19T06:23:40.344Z,26.88
2023-03-19T06:26:09.372Z,26.17
2023-03-19T06:28:44.845Z,26.52
2023-03-19T06:31:13.744Z,25.77
2023-03-19T06:36:31.128Z,27.27
2023-03-19T06:38:59.628Z,25.45
2023-03-19T06:41:27.455Z,27.15
2023-03-19T06:44:02.570Z,24.65
2023-03-19T06:46:30.665Z,24.67
2023-03-19T06:48:58.142Z,28.55
2023-03-19T06:51:27.985Z,25.05
2023-03-19T06:53:56.703Z,25.13
2023-03-19T06:56:24.149Z,23.52
2023-03-19T06:58:52.020Z,26.00
2023-03-19T07:01:19.496Z,24.55
2023-03-19T07:03:47.000Z,22.98
2023-03-19T07:06:14.543Z,23.80
2023-03-19T07:08:46.316Z,22.27
2023-03-19T07:11:14.998Z,23.45
2023-03-19T07:13:42.990Z,25.60
2023-03-19T07:16:10.548Z,27.65
2023-03-19T07:18:38.599Z,22.90
2023-03-19T07:21:06.147Z,21.98
2023-03-19T07:23:33.598Z,23.63
2023-03-19T07:26:01.096Z,25.48
2023-03-19T07:28:28.590Z,27.80
2023-03-19T07:30:56.472Z,21.50
2023-03-19T07:33:23.974Z,22.13
2023-03-19T07:35:51.904Z,27.15
2023-03-19T07:38:19.414Z,22.77
2023-03-19T07:41:00.910Z,26.80
2023-03-19T07:43:29.525Z,24.50
2023-03-19T07:45:57.499Z,23.08
2023-03-19T07:48:24.998Z,24.90
2023-03-19T07:50:52.781Z,29.17
2023-03-19T07:53:20.852Z,20.58
2023-03-19T07:55:49.053Z,24.58
2023-03-19T07:58:17.136Z,24.20
2023-03-19T08:00:45.389Z,24.13
2023-03-19T08:03:13.239Z,22.20
2023-03-19T08:05:40.943Z,25.77
2023-03-19T08:08:09.367Z,22.85
2023-03-19T08:10:38.592Z,21.02
2023-03-19T08:13:06.937Z,21.10
2023-03-19T08:15:34.923Z,22.80
2023-03-19T08:18:05.177Z,24.65
2023-03-19T08:20:33.263Z,22.02
2023-03-19T08:23:01.034Z,23.27
2023-03-19T08:25:32.629Z,20.55
2023-03-19T08:28:01.156Z,20.55
2023-03-19T08:30:29.174Z,23.30
2023-03-19T08:32:56.848Z,20.23
2023-03-19T08:35:27.190Z,19.90
2023-03-19T08:37:55.534Z,19.40
2023-03-19T08:40:23.965Z,19.98
2023-03-19T08:42:51.459Z,19.90
2023-03-19T08:45:19.304Z,17.45
2023-03-19T08:47:46.801Z,20.67
2023-03-19T08:50:14.763Z,21.73
2023-03-19T08:52:42.534Z,22.13
2023-03-19T08:55:10.701Z,26.45
2023-03-19T08:57:38.177Z,26.55
2023-03-19T09:00:06.444Z,21.73
2023-03-19T09:02:34.024Z,19.63
2023-03-19T09:05:01.491Z,20.25
2023-03-19T09:07:29.201Z,20.67
2023-03-19T09:09:56.612Z,22.95
2023-03-19T09:12:24.347Z,18.20
2023-03-19T09:14:51.956Z,19.50
2023-03-19T09:17:19.485Z,22.17
2023-03-19T09:19:46.947Z,20.60
2023-03-19T09:22:14.582Z,19.88
2023-03-19T09:24:42.112Z,20.85
2023-03-19T09:27:09.531Z,21.15
2023-03-19T09:29:36.995Z,17.75
2023-03-19T09:32:04.602Z,18.15
2023-03-19T09:34:32.056Z,21.67
2023-03-19T09:36:59.574Z,19.70
2023-03-19T09:39:26.996Z,17.60
2023-03-19T09:42:12.978Z,22.65
2023-03-19T09:44:44.368Z,19.90
2023-03-19T09:47:34.342Z,16.80
2023-03-19T09:50:11.504Z,20.77
2023-03-19T09:53:09.985Z,23.23
2023-03-19T09:55:44.519Z,18.42
2023-03-19T09:58:36.445Z,22.73
2023-03-19T10:01:05.024Z,25.23
2023-03-19T10:03:38.407Z,22.92
2023-03-19T10:06:21.351Z,23.00
2023-03-19T10:09:15.201Z,21.73
2023-03-19T10:12:01.388Z,20.37
2023-03-19T10:14:55.483Z,24.05
2023-03-19T10:17:29.366Z,26.52
2023-03-19T10:20:16.058Z,22.45
2023-03-19T10:22:51.807Z,21.23
2023-03-19T10:25:26.184Z,22.73
2023-03-19T10:28:01.948Z,21.98
2023-03-19T10:30:33.814Z,22.05
2023-03-19T10:33:26.451Z,23.27
2023-03-19T10:36:02.293Z,19.67
2023-03-19T10:38:31.159Z,22.52
2023-03-19T10:41:43.555Z,22.13
2023-03-19T10:44:29.467Z,23.05
2023-03-19T10:47:11.105Z,19.38
2023-03-19T10:49:38.772Z,21.65
2023-03-19T10:52:17.280Z,22.75
2023-03-19T10:54:46.162Z,23.27
2023-03-19T10:57:26.566Z,24.08
2023-03-19T10:59:54.720Z,20.80
2023-03-19T11:02:27.572Z,25.23
2023-03-19T11:05:23.809Z,22.63
2023-03-19T11:07:57.119Z,23.55
2023-03-19T11:10:30.184Z,25.77
2023-03-19T11:13:13.616Z,23.60
2023-03-19T11:15:41.491Z,21.53
2023-03-19T11:18:19.601Z,21.25
2023-03-19T11:20:55.740Z,23.38
2023-03-19T11:23:23.313Z,22.88
2023-03-19T11:25:53.186Z,21.45
2023-03-19T11:28:26.947Z,21.15
2023-03-19T11:33:50.553Z,20.23
2023-03-19T11:36:22.565Z,19.55
2023-03-19T11:39:00.820Z,21.17
2023-03-19T11:42:13.145Z,22.63
2023-03-19T11:44:52.906Z,21.95
2023-03-19T11:47:28.297Z,21.90
2023-03-19T11:50:08.469Z,24.55
2023-03-19T11:52:59.352Z,21.17
2023-03-19T11:55:38.609Z,23.13
2023-03-19T11:58:18.211Z,24.15
2023-03-19T12:00:54.067Z,25.17
2023-03-19T12:03:22.126Z,24.88
2023-03-19T12:05:59.921Z,22.73
2023-03-19T12:08:37.767Z,27.10
2023-03-19T12:11:35.648Z,22.55
2023-03-19T12:14:23.560Z,26.13
2023-03-19T12:17:15.980Z,24.50
2023-03-19T12:20:17.223Z,21.50
2023-03-19T12:23:23.212Z,22.20
2023-03-19T12:26:04.707Z,24.08
2023-03-19T12:28:41.927Z,27.58
2023-03-19T12:31:31.291Z,25.50
2023-03-19T12:34:05.272Z,25.45
2023-03-19T12:39:30.935Z,26.17
2023-03-19T12:44:37.708Z,27.50
2023-03-19T12:47:10.803Z,28.45
2023-03-19T12:49:46.449Z,28.80
2023-03-19T12:52:38.051Z,23.45
2023-03-19T12:55:25.800Z,27.45
2023-03-19T12:58:04.017Z,23.38
2023-03-19T13:00:43.403Z,26.13
2023-03-19T13:03:18.959Z,24.08
2023-03-19T13:06:05.112Z,29.75
2023-03-19T13:08:47.567Z,25.13
2023-03-19T13:11:36.542Z,26.42
2023-03-19T13:14:21.987Z,22.50
2023-03-19T13:17:12.378Z,26.10
2023-03-19T13:19:57.234Z,25.17
2023-03-19T13:22:32.206Z,25.75
2023-03-19T13:25:02.039Z,28.50
2023-03-19T13:27:36.857Z,23.30
2023-03-19T13:30:10.328Z,25.20
2023-03-19T13:32:46.015Z,24.95
2023-03-19T13:35:16.656Z,27.13
2023-03-19T13:37:44.696Z,24.35
2023-03-19T13:40:54.614Z,26.08
2023-03-19T13:43:31.326Z,23.67
2023-03-19T13:46:13.789Z,23.73
2023-03-19T13:48:47.781Z,22.45
2023-03-19T13:53:53.904Z,22.65
2023-03-19T13:56:30.050Z,30.92
2023-03-19T13:59:24.410Z,24.38
2023-03-19T14:01:51.992Z,23.23
2023-03-19T14:04:29.464Z,22.67
2023-03-19T14:07:13.455Z,22.75
2023-03-19T14:09:45.076Z,26.75
2023-03-19T14:12:18.566Z,27.80
2023-03-19T14:14:53.941Z,26.45
2023-03-19T14:17:35.035Z,20.10
2023-03-19T14:20:12.543Z,18.80
2023-03-19T14:22:58.277Z,20.90
2023-03-19T14:25:28.035Z,23.30
2023-03-19T14:28:02.394Z,23.38
2023-03-19T14:30:37.951Z,20.35
2023-03-19T14:33:15.548Z,18.27
2023-03-19T14:35:47.150Z,19.98
2023-03-19T14:38:29.496Z,19.60
2023-03-19T14:41:01.270Z,25.13
2023-03-19T14:43:53.603Z,18.75
2023-03-19T14:46:41.877Z,22.48
2023-03-19T14:49:46.618Z,23.55
2023-03-19T14:52:23.533Z,24.50
2023-03-19T14:54:55.977Z,19.73
2023-03-19T14:57:28.044Z,22.00
2023-03-19T14:59:56.714Z,28.90
2023-03-19T15:02:39.266Z,18.10
2023-03-19T15:05:18.926Z,20.85
2023-03-19T15:07:49.649Z,21.95
2023-03-19T15:10:27.915Z,24.00
2023-03-19T15:13:11.292Z,21.27
2023-03-19T15:16:00.784Z,23.40
2023-03-19T15:18:28.809Z,17.42
2023-03-19T15:20:57.002Z,23.95
2023-03-19T15:23:28.942Z,21.00
2023-03-19T15:26:02.047Z,23.67
2023-03-19T15:28:44.764Z,22.10
2023-03-19T15:31:30.433Z,24.17
2023-03-19T15:34:01.010Z,18.80
2023-03-19T15:36:31.769Z,19.95
2023-03-19T15:39:06.111Z,18.83
2023-03-19T15:41:40.437Z,18.13
2023-03-19T15:44:14.649Z,21.45
2023-03-19T15:46:44.725Z,25.45
2023-03-19T15:49:20.165Z,25.48
2023-03-19T15:51:53.502Z,21.73
2023-03-19T15:54:21.880Z,17.08
2023-03-19T15:56:51.326Z,17.95
2023-03-19T15:59:22.292Z,17.67
2023-03-19T16:01:51.163Z,15.70
2023-03-19T16:04:25.584Z,25.27
2023-03-19T16:06:53.324Z,15.40
2023-03-19T16:09:24.869Z,17.88
2023-03-19T16:11:54.299Z,18.85
2023-03-19T16:14:25.372Z,16.65
2023-03-19T16:16:59.984Z,12.70
2023-03-19T16:19:32.260Z,10.77
2023-03-19T16:22:01.115Z,11.07
2023-03-19T16:24:51.320Z,10.73
2023-03-19T16:27:21.591Z,10.05
2023-03-19T16:29:57.617Z,8.82
2023-03-19T16:32:27.088Z,8.88
2023-03-19T16:35:06.287Z,7.80
2023-03-19T16:37:33.933Z,7.15
2023-03-19T16:40:24.482Z,5.25
2023-03-19T16:43:06.190Z,6.68
2023-03-19T16:45:35.389Z,5.22
2023-03-19T16:48:03.697Z,4.80
2023-03-19T16:50:43.617Z,5.15
2023-03-19T16:53:22.627Z,4.07
2023-03-19T16:55:51.063Z,5.47
2023-03-19T16:58:27.217Z,5.13
2023-03-19T17:00:54.904Z,3.63
2023-03-19T17:03:22.317Z,6.70
2023-03-19T17:05:49.963Z,5.90
2023-03-19T17:08:17.569Z,5.57
2023-03-19T17:10:49.324Z,7.72
2023-03-19T17:13:28.215Z,5.63
2023-03-19T17:16:02.871Z,4.88
2023-03-19T17:18:35.218Z,4.43
2023-03-19T17:21:21.578Z,5.68
2023-03-19T17:23:49.721Z,3.90
2023-03-19T17:26:23.261Z,4.30
2023-03-19T17:28:50.812Z,5.78
2023-03-19T17:31:30.405Z,7.75
2023-03-19T17:34:12.826Z,8.27
2023-03-19T17:36:40.806Z,3.75
2023-03-19T17:39:11.400Z,4.60
2023-03-19T17:41:38.955Z,4.85
2023-03-19T17:44:06.784Z,5.93
2023-03-19T17:46:39.762Z,6.32
2023-03-19T17:49:20.704Z,7.63
2023-03-19T17:51:48.997Z,6.22
2023-03-19T17:54:16.470Z,3.03
2023-03-19T17:56:43.927Z,6.50
2023-03-19T17:59:12.184Z,6.03
2023-03-19T18:01:43.719Z,5.72
2023-03-19T18:04:15.057Z,6.47
2023-03-19T18:06:45.798Z,4.82
2023-03-19T18:09:22.357Z,7.22
2023-03-19T18:11:50.272Z,5.38
2023-03-19T18:14:18.014Z,3.90
2023-03-19T18:16:46.987Z,7.28
2023-03-19T18:19:37.849Z,5.88
2023-03-19T18:22:17.042Z,6.22
2023-03-19T18:24:44.952Z,4.68
2023-03-19T18:27:13.430Z,8.38
2023-03-19T18:29:40.979Z,5.68
2023-03-19T18:32:16.430Z,5.50
2023-03-19T18:34:44.126Z,5.85
2023-03-19T18:37:17.047Z,7.15
2023-03-19T18:39:45.154Z,7.05
2023-03-19T18:42:13.468Z,11.77
2023-03-19T18:44:40.978Z,17.23
2023-03-19T18:47:16.478Z,17.73
2023-03-19T18:49:44.821Z,13.88
2023-03-19T18:52:19.142Z,20.83
2023-03-19T18:54:47.211Z,15.73
2023-03-19T18:57:16.205Z,12.25
2023-03-19T18:59:43.893Z,10.60
2023-03-19T19:02:32.623Z,6.38
2023-03-19T19:05:00.819Z,5.47
2023-03-19T19:07:28.364Z,5.88
2023-03-19T19:09:55.947Z,6.03
2023-03-19T19:12:24.816Z,4.05
2023-03-19T19:14:52.385Z,4.57
2023-03-19T19:17:24.175Z,8.48
2023-03-19T19:19:51.810Z,8.45
2023-03-19T19:22:20.536Z,10.98
2023-03-19T19:24:48.075Z,11.13
2023-03-19T19:27:22.048Z,10.85
2023-03-19T19:29:50.396Z,7.15
2023-03-19T19:32:27.320Z,5.40
2023-03-19T19:34:55.178Z,5.45
2023-03-19T19:37:23.763Z,7.00
2023-03-19T19:39:51.778Z,6.18
2023-03-19T19:42:22.413Z,6.25
2023-03-19T19:44:59.043Z,5.32
2023-03-19T19:47:27.849Z,4.25
2023-03-19T19:49:56.612Z,4.95
2023-03-19T19:52:24.113Z,3.25
2023-03-19T19:54:52.041Z,5.22
2023-03-19T19:57:23.152Z,3.10
2023-03-19T19:59:52.077Z,3.25
2023-03-19T20:02:31.174Z,4.90
2023-03-19T20:04:58.897Z,4.25
2023-03-19T20:07:27.257Z,4.22
2023-03-19T20:09:54.743Z,6.63
2023-03-19T20:12:26.609Z,5.95
2023-03-19T20:14:54.167Z,5.43
2023-03-19T20:17:21.618Z,4.75
2023-03-19T20:19:49.366Z,7.20
2023-03-19T20:22:17.109Z,6.18
2023-03-19T20:24:45.552Z,7.13
2023-03-19T20:27:33.706Z,5.88
2023-03-19T20:30:01.662Z,4.13
2023-03-19T20:32:33.183Z,6.03
2023-03-19T20:35:01.237Z,5.88
2023-03-19T20:37:29.061Z,5.85
2023-03-19T20:39:56.887Z,5.20
2023-03-19T20:42:25.593Z,4.97
2023-03-19T20:44:58.189Z,4.78
2023-03-19T20:47:26.097Z,4.85
2023-03-19T20:49:54.094Z,7.03
2023-03-19T20:52:21.640Z,5.47
2023-03-19T20:54:49.135Z,5.45
2023-03-19T20:57:21.402Z,12.20
2023-03-19T20:59:48.940Z,17.40
2023-03-19T21:02:18.675Z,13.48
2023-03-19T21:04:47.714Z,5.32
2023-03-19T21:07:27.579Z,6.13
2023-03-19T21:09:58.679Z,4.93
2023-03-19T21:12:32.440Z,8.68
2023-03-19T21:15:01.364Z,9.10
2023-03-19T21:17:28.887Z,8.32
2023-03-19T21:19:56.990Z,27.23
2023-03-19T21:22:28.812Z,25.75
2023-03-19T21:25:06.135Z,13.63
2023-03-19T21:27:36.781Z,13.45
2023-03-19T21:30:08.054Z,11.55
2023-03-19T21:32:35.685Z,10.07
2023-03-19T21:35:03.138Z,6.75
2023-03-19T21:37:30.639Z,7.43
2023-03-19T21:39:58.023Z,6.05
2023-03-19T21:42:31.902Z,8.18
2023-03-19T21:47:27.139Z,19.83
2023-03-19T21:49:55.697Z,16.42
2023-03-19T21:52:23.202Z,12.52
2023-03-19T21:54:51.216Z,10.85
2023-03-19T21:57:18.781Z,11.40
2023-03-19T21:59:47.137Z,12.55
2023-03-19T22:02:23.635Z,12.20
2023-03-19T22:04:51.155Z,7.13
2023-03-19T22:07:18.646Z,5.82
2023-03-19T22:09:46.178Z,6.72
2023-03-19T22:12:27.613Z,6.95
2023-03-19T22:14:55.492Z,5.78
2023-03-19T22:17:25.862Z,7.30
2023-03-19T22:19:53.490Z,5.68
2023-03-19T22:22:20.934Z,5.35
2023-03-19T22:24:48.503Z,5.35
2023-03-19T22:27:17.426Z,9.73
2023-03-19T22:29:46.237Z,7.45
2023-03-19T22:32:18.515Z,9.73
2023-03-19T22:34:46.118Z,8.00
2023-03-19T22:37:26.488Z,7.15
2023-03-19T22:39:54.753Z,6.63
2023-03-19T22:42:26.418Z,5.90
2023-03-19T22:44:54.848Z,6.15
2023-03-19T22:47:25.234Z,5.60
2023-03-19T22:49:52.768Z,3.33
2023-03-19T22:52:20.146Z,6.03
2023-03-19T22:54:48.098Z,3.05
2023-03-19T22:57:15.873Z,3.53
2023-03-19T22:59:44.072Z,5.50
2023-03-19T23:02:14.927Z,4.07
2023-03-19T23:04:42.427Z,5.60
2023-03-19T23:07:12.674Z,3.15
2023-03-19T23:09:40.540Z,5.18
2023-03-19T23:14:36.927Z,5.32
2023-03-19T23:17:14.482Z,8.02
2023-03-19T23:19:42.027Z,4.47
2023-03-19T23:22:15.295Z,8.40
2023-03-19T23:24:42.805Z,4.45
2023-03-19T23:27:23.305Z,5.68
2023-03-19T23:29:51.225Z,9.38
2023-03-19T23:32:18.670Z,5.97
2023-03-19T23:34:59.181Z,6.22
2023-03-19T23:37:29.216Z,4.20
2023-03-19T23:39:58.035Z,4.10
2023-03-19T23:42:29.113Z,4.85
2023-03-19T23:44:59.518Z,5.95
2023-03-19T23:47:29.016Z,4.72
2023-03-19T23:49:57.057Z,6.13
2023-03-19T23:52:24.553Z,4.10
2023-03-19T23:54:52.588Z,6.00
2023-03-19T23:57:22.352Z,4.13
2023-03-19T23:59:52.394Z,4.20
